sensor_id;sensor_type;location;lat;lon;timestamp;P1;durP1;ratioP1;P2;durP2;ratioP2
8755;SDS011;4414;42.670;23.228;2022-07-22T00:00:29;8.63;;;4.00;;
8755;SDS011;4414;42.670;23.228;2022-07-22T00:02:56;6.50;;;4.15;;
8755;SDS011;4414;42.670;23.228;2022-07-22T00:05:22;7.30;;;4.30;;
8755;SDS011;4414;42.670;23.228;2022-07-22T00:07:49;5.18;;;4.65;;
8755;SDS011;4414;42.670;23.228;2022-07-22T00:10:17;7.13;;;4.53;;
8755;SDS011;4414;42.670;23.228;2022-07-22T00:12:44;6.50;;;4.22;;
8755;SDS011;4414;42.670;23.228;2022-07-22T00:15:11;7.63;;;4.10;;
8755;SDS011;4414;42.670;23.228;2022-07-22T00:17:37;6.15;;;4.32;;
8755;SDS011;4414;42.670;23.228;2022-07-22T00:20:05;9.40;;;4.57;;
8755;SDS011;4414;42.670;23.228;2022-07-22T00:22:33;5.65;;;5.13;;
8755;SDS011;4414;42.670;23.228;2022-07-22T00:25:00;4.90;;;4.40;;
8755;SDS011;4414;42.670;23.228;2022-07-22T00:27:28;4.68;;;3.90;;
8755;SDS011;4414;42.670;23.228;2022-07-22T00:29:55;4.55;;;4.13;;
8755;SDS011;4414;42.670;23.228;2022-07-22T00:32:22;4.88;;;4.15;;
8755;SDS011;4414;42.670;23.228;2022-07-22T00:34:48;5.75;;;4.32;;
8755;SDS011;4414;42.670;23.228;2022-07-22T00:37:15;4.50;;;4.10;;
8755;SDS011;4414;42.670;23.228;2022-07-22T00:39:42;9.32;;;4.38;;
8755;SDS011;4414;42.670;23.228;2022-07-22T00:42:08;4.63;;;4.20;;
8755;SDS011;4414;42.670;23.228;2022-07-22T00:44:37;4.97;;;4.10;;
8755;SDS011;4414;42.670;23.228;2022-07-22T00:47:03;6.85;;;3.97;;
8755;SDS011;4414;42.670;23.228;2022-07-22T00:49:30;8.52;;;4.20;;
8755;SDS011;4414;42.670;23.228;2022-07-22T00:51:57;6.05;;;4.15;;
8755;SDS011;4414;42.670;23.228;2022-07-22T00:54:24;6.18;;;4.10;;
8755;SDS011;4414;42.670;23.228;2022-07-22T00:56:51;6.15;;;4.00;;
8755;SDS011;4414;42.670;23.228;2022-07-22T00:59:17;5.85;;;4.00;;
8755;SDS011;4414;42.670;23.228;2022-07-22T01:01:47;5.07;;;4.00;;
8755;SDS011;4414;42.670;23.228;2022-07-22T01:04:14;4.53;;;4.13;;
8755;SDS011;4414;42.670;23.228;2022-07-22T01:06:41;6.53;;;3.88;;
8755;SDS011;4414;42.670;23.228;2022-07-22T01:09:10;5.53;;;4.18;;
8755;SDS011;4414;42.670;23.228;2022-07-22T01:11:39;6.30;;;4.40;;
8755;SDS011;4414;42.670;23.228;2022-07-22T01:14:07;6.75;;;4.18;;
8755;SDS011;4414;42.670;23.228;2022-07-22T01:16:34;8.32;;;4.45;;
8755;SDS011;4414;42.670;23.228;2022-07-22T01:19:03;5.10;;;4.10;;
8755;SDS011;4414;42.670;23.228;2022-07-22T01:21:32;4.28;;;3.88;;
8755;SDS011;4414;42.670;23.228;2022-07-22T01:23:59;4.78;;;3.83;;
8755;SDS011;4414;42.670;23.228;2022-07-22T01:26:25;5.50;;;4.00;;
8755;SDS011;4414;42.670;23.228;2022-07-22T01:28:52;6.38;;;4.07;;
8755;SDS011;4414;42.670;23.228;2022-07-22T01:31:19;4.25;;;3.85;;
8755;SDS011;4414;42.670;23.228;2022-07-22T01:33:46;4.85;;;4.38;;
8755;SDS011;4414;42.670;23.228;2022-07-22T01:36:14;5.25;;;4.07;;
8755;SDS011;4414;42.670;23.228;2022-07-22T01:38:43;5.95;;;4.38;;
8755;SDS011;4414;42.670;23.228;2022-07-22T01:41:10;5.93;;;4.35;;
8755;SDS011;4414;42.670;23.228;2022-07-22T01:43:37;11.48;;;4.55;;
8755;SDS011;4414;42.670;23.228;2022-07-22T01:46:04;5.55;;;3.92;;
8755;SDS011;4414;42.670;23.228;2022-07-22T01:48:31;7.65;;;4.70;;
8755;SDS011;4414;42.670;23.228;2022-07-22T01:50:58;6.43;;;4.38;;
8755;SDS011;4414;42.670;23.228;2022-07-22T01:53:25;5.55;;;4.82;;
8755;SDS011;4414;42.670;23.228;2022-07-22T01:55:53;8.77;;;5.43;;
8755;SDS011;4414;42.670;23.228;2022-07-22T01:58:20;6.00;;;5.10;;
8755;SDS011;4414;42.670;23.228;2022-07-22T02:00:47;5.75;;;4.55;;
8755;SDS011;4414;42.670;23.228;2022-07-22T02:03:15;8.38;;;5.10;;
8755;SDS011;4414;42.670;23.228;2022-07-22T02:05:42;11.40;;;5.13;;
8755;SDS011;4414;42.670;23.228;2022-07-22T02:08:09;5.40;;;4.43;;
8755;SDS011;4414;42.670;23.228;2022-07-22T02:10:36;8.15;;;4.88;;
8755;SDS011;4414;42.670;23.228;2022-07-22T02:13:05;5.18;;;4.53;;
8755;SDS011;4414;42.670;23.228;2022-07-22T02:15:32;8.15;;;4.80;;
8755;SDS011;4414;42.670;23.228;2022-07-22T02:17:59;8.45;;;5.30;;
8755;SDS011;4414;42.670;23.228;2022-07-22T02:20:26;11.57;;;5.80;;
8755;SDS011;4414;42.670;23.228;2022-07-22T02:22:53;6.22;;;4.22;;
8755;SDS011;4414;42.670;23.228;2022-07-22T02:25:20;11.15;;;5.15;;
8755;SDS011;4414;42.670;23.228;2022-07-22T02:27:47;7.15;;;4.68;;
8755;SDS011;4414;42.670;23.228;2022-07-22T02:30:15;5.43;;;4.80;;
8755;SDS011;4414;42.670;23.228;2022-07-22T02:32:42;5.38;;;4.68;;
8755;SDS011;4414;42.670;23.228;2022-07-22T02:35:08;5.30;;;4.85;;
8755;SDS011;4414;42.670;23.228;2022-07-22T02:37:35;8.40;;;5.43;;
8755;SDS011;4414;42.670;23.228;2022-07-22T02:40:03;5.40;;;4.68;;
8755;SDS011;4414;42.670;23.228;2022-07-22T02:42:31;5.50;;;4.43;;
8755;SDS011;4414;42.670;23.228;2022-07-22T02:44:58;9.20;;;4.57;;
8755;SDS011;4414;42.670;23.228;2022-07-22T02:47:26;7.03;;;5.20;;
8755;SDS011;4414;42.670;23.228;2022-07-22T02:49:53;6.35;;;4.30;;
8755;SDS011;4414;42.670;23.228;2022-07-22T02:52:20;6.25;;;5.10;;
8755;SDS011;4414;42.670;23.228;2022-07-22T02:54:46;8.88;;;4.65;;
8755;SDS011;4414;42.670;23.228;2022-07-22T02:57:13;5.38;;;4.70;;
8755;SDS011;4414;42.670;23.228;2022-07-22T02:59:40;7.20;;;4.65;;
8755;SDS011;4414;42.670;23.228;2022-07-22T03:02:07;8.65;;;4.55;;
8755;SDS011;4414;42.670;23.228;2022-07-22T03:04:35;9.82;;;4.55;;
8755;SDS011;4414;42.670;23.228;2022-07-22T03:07:02;6.25;;;4.05;;
8755;SDS011;4414;42.670;23.228;2022-07-22T03:09:28;5.55;;;4.40;;
8755;SDS011;4414;42.670;23.228;2022-07-22T03:11:55;8.50;;;4.05;;
8755;SDS011;4414;42.670;23.228;2022-07-22T03:14:22;13.07;;;4.22;;
8755;SDS011;4414;42.670;23.228;2022-07-22T03:16:49;5.60;;;4.70;;
8755;SDS011;4414;42.670;23.228;2022-07-22T03:19:15;4.85;;;4.07;;
8755;SDS011;4414;42.670;23.228;2022-07-22T03:21:43;7.05;;;4.82;;
8755;SDS011;4414;42.670;23.228;2022-07-22T03:24:10;6.20;;;4.63;;
8755;SDS011;4414;42.670;23.228;2022-07-22T03:26:37;4.40;;;4.03;;
8755;SDS011;4414;42.670;23.228;2022-07-22T03:29:04;10.30;;;4.47;;
8755;SDS011;4414;42.670;23.228;2022-07-22T03:31:30;6.28;;;4.38;;
8755;SDS011;4414;42.670;23.228;2022-07-22T03:33:57;5.72;;;3.92;;
8755;SDS011;4414;42.670;23.228;2022-07-22T03:36:25;10.00;;;4.22;;
8755;SDS011;4414;42.670;23.228;2022-07-22T03:38:54;8.50;;;4.22;;
8755;SDS011;4414;42.670;23.228;2022-07-22T03:41:21;9.02;;;4.85;;
8755;SDS011;4414;42.670;23.228;2022-07-22T03:43:47;6.63;;;3.83;;
8755;SDS011;4414;42.670;23.228;2022-07-22T03:46:14;8.50;;;4.28;;
8755;SDS011;4414;42.670;23.228;2022-07-22T03:48:41;8.07;;;4.07;;
8755;SDS011;4414;42.670;23.228;2022-07-22T03:51:08;4.80;;;4.40;;
8755;SDS011;4414;42.670;23.228;2022-07-22T03:53:34;6.70;;;4.50;;
8755;SDS011;4414;42.670;23.228;2022-07-22T03:56:03;5.20;;;4.28;;
8755;SDS011;4414;42.670;23.228;2022-07-22T03:58:30;6.13;;;3.88;;
8755;SDS011;4414;42.670;23.228;2022-07-22T04:00:57;4.63;;;3.90;;
8755;SDS011;4414;42.670;23.228;2022-07-22T04:03:23;8.38;;;4.03;;
8755;SDS011;4414;42.670;23.228;2022-07-22T04:05:50;4.90;;;4.40;;
8755;SDS011;4414;42.670;23.228;2022-07-22T04:08:17;8.13;;;4.90;;
8755;SDS011;4414;42.670;23.228;2022-07-22T04:10:45;9.40;;;4.57;;
8755;SDS011;4414;42.670;23.228;2022-07-22T04:13:13;8.80;;;4.80;;
8755;SDS011;4414;42.670;23.228;2022-07-22T04:15:40;4.85;;;3.97;;
8755;SDS011;4414;42.670;23.228;2022-07-22T04:18:07;6.15;;;4.10;;
8755;SDS011;4414;42.670;23.228;2022-07-22T04:20:33;7.32;;;3.92;;
8755;SDS011;4414;42.670;23.228;2022-07-22T04:23:00;4.68;;;4.20;;
8755;SDS011;4414;42.670;23.228;2022-07-22T04:25:27;4.30;;;3.90;;
8755;SDS011;4414;42.670;23.228;2022-07-22T04:27:54;5.88;;;3.90;;
8755;SDS011;4414;42.670;23.228;2022-07-22T04:30:22;7.10;;;3.88;;
8755;SDS011;4414;42.670;23.228;2022-07-22T04:32:49;5.80;;;4.18;;
8755;SDS011;4414;42.670;23.228;2022-07-22T04:35:16;4.95;;;3.47;;
8755;SDS011;4414;42.670;23.228;2022-07-22T04:37:43;3.95;;;3.65;;
8755;SDS011;4414;42.670;23.228;2022-07-22T04:40:10;4.45;;;4.03;;
8755;SDS011;4414;42.670;23.228;2022-07-22T04:42:37;5.13;;;3.90;;
8755;SDS011;4414;42.670;23.228;2022-07-22T04:45:04;10.75;;;3.97;;
8755;SDS011;4414;42.670;23.228;2022-07-22T04:47:33;6.93;;;4.55;;
8755;SDS011;4414;42.670;23.228;2022-07-22T04:50:00;4.40;;;4.00;;
8755;SDS011;4414;42.670;23.228;2022-07-22T04:52:27;4.95;;;4.28;;
8755;SDS011;4414;42.670;23.228;2022-07-22T04:54:54;10.18;;;3.70;;
8755;SDS011;4414;42.670;23.228;2022-07-22T04:57:21;9.43;;;5.00;;
8755;SDS011;4414;42.670;23.228;2022-07-22T04:59:47;11.50;;;7.15;;
8755;SDS011;4414;42.670;23.228;2022-07-22T05:02:14;10.02;;;6.20;;
8755;SDS011;4414;42.670;23.228;2022-07-22T05:04:42;9.13;;;6.35;;
8755;SDS011;4414;42.670;23.228;2022-07-22T05:07:09;8.30;;;6.43;;
8755;SDS011;4414;42.670;23.228;2022-07-22T05:09:36;9.23;;;6.18;;
8755;SDS011;4414;42.670;23.228;2022-07-22T05:12:03;9.18;;;6.53;;
8755;SDS011;4414;42.670;23.228;2022-07-22T05:14:30;9.48;;;6.38;;
8755;SDS011;4414;42.670;23.228;2022-07-22T05:16:57;13.20;;;6.22;;
8755;SDS011;4414;42.670;23.228;2022-07-22T05:19:24;9.57;;;6.40;;
8755;SDS011;4414;42.670;23.228;2022-07-22T05:21:52;7.97;;;6.07;;
8755;SDS011;4414;42.670;23.228;2022-07-22T05:24:18;13.10;;;6.65;;
8755;SDS011;4414;42.670;23.228;2022-07-22T05:26:45;9.57;;;6.38;;
8755;SDS011;4414;42.670;23.228;2022-07-22T05:29:12;9.10;;;6.30;;
8755;SDS011;4414;42.670;23.228;2022-07-22T05:31:39;5.05;;;4.00;;
8755;SDS011;4414;42.670;23.228;2022-07-22T05:34:05;4.20;;;3.90;;
8755;SDS011;4414;42.670;23.228;2022-07-22T05:36:32;5.55;;;3.88;;
8755;SDS011;4414;42.670;23.228;2022-07-22T05:39:00;6.70;;;3.70;;
8755;SDS011;4414;42.670;23.228;2022-07-22T05:41:27;4.57;;;3.72;;
8755;SDS011;4414;42.670;23.228;2022-07-22T05:43:54;3.85;;;3.50;;
8755;SDS011;4414;42.670;23.228;2022-07-22T05:46:21;3.75;;;3.40;;
8755;SDS011;4414;42.670;23.228;2022-07-22T05:48:47;5.53;;;3.75;;
8755;SDS011;4414;42.670;23.228;2022-07-22T05:51:14;5.25;;;3.88;;
8755;SDS011;4414;42.670;23.228;2022-07-22T05:53:42;5.90;;;4.35;;
8755;SDS011;4414;42.670;23.228;2022-07-22T05:56:10;6.43;;;4.22;;
8755;SDS011;4414;42.670;23.228;2022-07-22T05:58:37;4.75;;;3.55;;
8755;SDS011;4414;42.670;23.228;2022-07-22T06:01:04;5.20;;;3.47;;
8755;SDS011;4414;42.670;23.228;2022-07-22T06:03:31;7.03;;;4.15;;
8755;SDS011;4414;42.670;23.228;2022-07-22T06:05:58;5.90;;;4.30;;
8755;SDS011;4414;42.670;23.228;2022-07-22T06:08:26;5.43;;;3.70;;
8755;SDS011;4414;42.670;23.228;2022-07-22T06:10:53;4.88;;;4.38;;
8755;SDS011;4414;42.670;23.228;2022-07-22T06:13:21;7.07;;;3.85;;
8755;SDS011;4414;42.670;23.228;2022-07-22T06:15:48;8.23;;;4.15;;
8755;SDS011;4414;42.670;23.228;2022-07-22T06:18:15;5.05;;;3.40;;
8755;SDS011;4414;42.670;23.228;2022-07-22T06:20:42;7.82;;;3.97;;
8755;SDS011;4414;42.670;23.228;2022-07-22T06:23:09;6.57;;;4.40;;
8755;SDS011;4414;42.670;23.228;2022-07-22T06:25:35;4.22;;;3.83;;
8755;SDS011;4414;42.670;23.228;2022-07-22T06:28:02;4.47;;;4.07;;
8755;SDS011;4414;42.670;23.228;2022-07-22T06:30:31;7.57;;;4.18;;
8755;SDS011;4414;42.670;23.228;2022-07-22T06:32:58;6.40;;;4.10;;
8755;SDS011;4414;42.670;23.228;2022-07-22T06:35:24;8.38;;;4.22;;
8755;SDS011;4414;42.670;23.228;2022-07-22T06:37:51;6.80;;;4.05;;
8755;SDS011;4414;42.670;23.228;2022-07-22T06:40:18;5.82;;;3.90;;
8755;SDS011;4414;42.670;23.228;2022-07-22T06:42:45;8.65;;;4.53;;
8755;SDS011;4414;42.670;23.228;2022-07-22T06:45:12;8.88;;;4.57;;
8755;SDS011;4414;42.670;23.228;2022-07-22T06:47:40;7.78;;;4.40;;
8755;SDS011;4414;42.670;23.228;2022-07-22T06:50:07;5.32;;;3.90;;
8755;SDS011;4414;42.670;23.228;2022-07-22T06:52:37;6.35;;;3.92;;
8755;SDS011;4414;42.670;23.228;2022-07-22T06:55:05;8.77;;;3.97;;
8755;SDS011;4414;42.670;23.228;2022-07-22T06:57:32;11.23;;;3.85;;
8755;SDS011;4414;42.670;23.228;2022-07-22T06:59:59;8.40;;;4.75;;
8755;SDS011;4414;42.670;23.228;2022-07-22T07:02:26;5.38;;;3.85;;
8755;SDS011;4414;42.670;23.228;2022-07-22T07:04:54;6.00;;;4.43;;
8755;SDS011;4414;42.670;23.228;2022-07-22T07:07:21;9.35;;;4.95;;
8755;SDS011;4414;42.670;23.228;2022-07-22T07:09:47;7.90;;;4.30;;
8755;SDS011;4414;42.670;23.228;2022-07-22T07:12:14;5.05;;;4.65;;
8755;SDS011;4414;42.670;23.228;2022-07-22T07:14:41;4.88;;;4.03;;
8755;SDS011;4414;42.670;23.228;2022-07-22T07:17:08;6.55;;;4.03;;
8755;SDS011;4414;42.670;23.228;2022-07-22T07:19:34;6.65;;;4.00;;
8755;SDS011;4414;42.670;23.228;2022-07-22T07:22:02;5.45;;;4.15;;
8755;SDS011;4414;42.670;23.228;2022-07-22T07:24:29;7.78;;;4.38;;
8755;SDS011;4414;42.670;23.228;2022-07-22T07:26:56;8.73;;;4.68;;
8755;SDS011;4414;42.670;23.228;2022-07-22T07:29:23;4.70;;;4.30;;
8755;SDS011;4414;42.670;23.228;2022-07-22T07:31:49;9.20;;;4.45;;
8755;SDS011;4414;42.670;23.228;2022-07-22T07:34:16;11.02;;;3.80;;
8755;SDS011;4414;42.670;23.228;2022-07-22T07:36:43;4.38;;;3.92;;
8755;SDS011;4414;42.670;23.228;2022-07-22T07:39:11;7.00;;;3.60;;
8755;SDS011;4414;42.670;23.228;2022-07-22T07:41:38;4.68;;;3.47;;
8755;SDS011;4414;42.670;23.228;2022-07-22T07:44:05;3.97;;;3.60;;
8755;SDS011;4414;42.670;23.228;2022-07-22T07:46:32;4.28;;;3.63;;
8755;SDS011;4414;42.670;23.228;2022-07-22T07:48:59;5.03;;;3.67;;
8755;SDS011;4414;42.670;23.228;2022-07-22T07:51:26;4.28;;;3.88;;
8755;SDS011;4414;42.670;23.228;2022-07-22T07:53:52;3.92;;;3.60;;
8755;SDS011;4414;42.670;23.228;2022-07-22T07:56:21;4.07;;;3.65;;
8755;SDS011;4414;42.670;23.228;2022-07-22T07:58:47;4.97;;;3.85;;
8755;SDS011;4414;42.670;23.228;2022-07-22T08:01:14;6.65;;;3.80;;
8755;SDS011;4414;42.670;23.228;2022-07-22T08:03:41;3.85;;;3.17;;
8755;SDS011;4414;42.670;23.228;2022-07-22T08:06:08;3.50;;;3.30;;
8755;SDS011;4414;42.670;23.228;2022-07-22T08:08:34;4.45;;;3.83;;
8755;SDS011;4414;42.670;23.228;2022-07-22T08:11:01;4.93;;;4.38;;
8755;SDS011;4414;42.670;23.228;2022-07-22T08:13:30;6.05;;;3.70;;
8755;SDS011;4414;42.670;23.228;2022-07-22T08:15:56;3.78;;;3.40;;
8755;SDS011;4414;42.670;23.228;2022-07-22T08:18:23;4.03;;;3.63;;
8755;SDS011;4414;42.670;23.228;2022-07-22T08:20:50;4.57;;;4.18;;
8755;SDS011;4414;42.670;23.228;2022-07-22T08:23:17;6.80;;;4.10;;
8755;SDS011;4414;42.670;23.228;2022-07-22T08:25:43;5.25;;;4.13;;
8755;SDS011;4414;42.670;23.228;2022-07-22T08:28:10;4.88;;;3.58;;
8755;SDS011;4414;42.670;23.228;2022-07-22T08:30:38;7.38;;;4.05;;
8755;SDS011;4414;42.670;23.228;2022-07-22T08:33:05;8.15;;;3.88;;
8755;SDS011;4414;42.670;23.228;2022-07-22T08:35:32;5.57;;;3.92;;
8755;SDS011;4414;42.670;23.228;2022-07-22T08:37:59;3.92;;;3.63;;
8755;SDS011;4414;42.670;23.228;2022-07-22T08:40:26;4.43;;;3.85;;
8755;SDS011;4414;42.670;23.228;2022-07-22T08:42:53;3.85;;;3.55;;
8755;SDS011;4414;42.670;23.228;2022-07-22T08:45:20;7.20;;;4.28;;
8755;SDS011;4414;42.670;23.228;2022-07-22T08:47:49;4.45;;;4.00;;
8755;SDS011;4414;42.670;23.228;2022-07-22T08:50:17;5.22;;;4.30;;
8755;SDS011;4414;42.670;23.228;2022-07-22T08:52:44;5.95;;;3.75;;
8755;SDS011;4414;42.670;23.228;2022-07-22T08:55:11;4.43;;;3.50;;
8755;SDS011;4414;42.670;23.228;2022-07-22T08:57:43;3.70;;;3.40;;
8755;SDS011;4414;42.670;23.228;2022-07-22T09:00:12;5.13;;;4.45;;
8755;SDS011;4414;42.670;23.228;2022-07-22T09:02:42;5.13;;;3.92;;
8755;SDS011;4414;42.670;23.228;2022-07-22T09:05:11;4.65;;;4.05;;
8755;SDS011;4414;42.670;23.228;2022-07-22T09:07:40;8.65;;;4.53;;
8755;SDS011;4414;42.670;23.228;2022-07-22T09:10:09;4.43;;;3.78;;
8755;SDS011;4414;42.670;23.228;2022-07-22T09:12:49;5.90;;;4.15;;
8755;SDS011;4414;42.670;23.228;2022-07-22T09:15:24;4.80;;;4.15;;
8755;SDS011;4414;42.670;23.228;2022-07-22T09:17:53;5.75;;;4.13;;
8755;SDS011;4414;42.670;23.228;2022-07-22T09:20:21;4.40;;;4.00;;
8755;SDS011;4414;42.670;23.228;2022-07-22T09:22:49;6.22;;;4.15;;
8755;SDS011;4414;42.670;23.228;2022-07-22T09:25:17;6.53;;;4.93;;
8755;SDS011;4414;42.670;23.228;2022-07-22T09:27:45;8.90;;;4.30;;
8755;SDS011;4414;42.670;23.228;2022-07-22T09:30:13;5.30;;;4.07;;
8755;SDS011;4414;42.670;23.228;2022-07-22T09:32:40;5.35;;;4.05;;
8755;SDS011;4414;42.670;23.228;2022-07-22T09:35:08;5.70;;;3.75;;
8755;SDS011;4414;42.670;23.228;2022-07-22T09:37:37;8.40;;;4.40;;
8755;SDS011;4414;42.670;23.228;2022-07-22T09:40:13;7.28;;;3.83;;
8755;SDS011;4414;42.670;23.228;2022-07-22T09:42:45;4.88;;;4.38;;
8755;SDS011;4414;42.670;23.228;2022-07-22T09:45:16;5.68;;;4.25;;
8755;SDS011;4414;42.670;23.228;2022-07-22T09:47:44;5.43;;;4.07;;
8755;SDS011;4414;42.670;23.228;2022-07-22T09:50:21;4.75;;;4.22;;
8755;SDS011;4414;42.670;23.228;2022-07-22T09:52:53;4.35;;;3.95;;
8755;SDS011;4414;42.670;23.228;2022-07-22T09:55:22;4.63;;;4.15;;
8755;SDS011;4414;42.670;23.228;2022-07-22T09:57:50;7.40;;;5.25;;
8755;SDS011;4414;42.670;23.228;2022-07-22T10:00:19;4.45;;;4.05;;
8755;SDS011;4414;42.670;23.228;2022-07-22T10:02:49;5.15;;;4.63;;
8755;SDS011;4414;42.670;23.228;2022-07-22T10:05:18;4.22;;;3.92;;
8755;SDS011;4414;42.670;23.228;2022-07-22T10:07:47;4.90;;;4.40;;
8755;SDS011;4414;42.670;23.228;2022-07-22T10:10:16;5.70;;;4.18;;
8755;SDS011;4414;42.670;23.228;2022-07-22T10:12:45;7.10;;;4.28;;
8755;SDS011;4414;42.670;23.228;2022-07-22T10:15:14;4.53;;;4.10;;
8755;SDS011;4414;42.670;23.228;2022-07-22T10:17:42;4.72;;;4.32;;
8755;SDS011;4414;42.670;23.228;2022-07-22T10:20:11;7.22;;;4.28;;
8755;SDS011;4414;42.670;23.228;2022-07-22T10:22:48;11.77;;;4.30;;
8755;SDS011;4414;42.670;23.228;2022-07-22T10:25:18;4.07;;;3.75;;
8755;SDS011;4414;42.670;23.228;2022-07-22T10:27:47;8.38;;;4.40;;
8755;SDS011;4414;42.670;23.228;2022-07-22T10:30:16;4.53;;;4.22;;
8755;SDS011;4414;42.670;23.228;2022-07-22T10:32:44;6.80;;;3.90;;
8755;SDS011;4414;42.670;23.228;2022-07-22T10:35:21;4.72;;;4.20;;
8755;SDS011;4414;42.670;23.228;2022-07-22T10:37:49;4.45;;;4.13;;
8755;SDS011;4414;42.670;23.228;2022-07-22T10:40:22;5.22;;;4.15;;
8755;SDS011;4414;42.670;23.228;2022-07-22T10:43:02;4.68;;;4.20;;
8755;SDS011;4414;42.670;23.228;2022-07-22T10:45:32;5.78;;;4.32;;
8755;SDS011;4414;42.670;23.228;2022-07-22T10:48:01;5.70;;;4.13;;
8755;SDS011;4414;42.670;23.228;2022-07-22T10:50:40;3.83;;;3.53;;
8755;SDS011;4414;42.670;23.228;2022-07-22T10:53:09;4.15;;;3.60;;
8755;SDS011;4414;42.670;23.228;2022-07-22T10:55:38;5.47;;;3.80;;
8755;SDS011;4414;42.670;23.228;2022-07-22T10:58:42;4.40;;;4.10;;
8755;SDS011;4414;42.670;23.228;2022-07-22T11:01:16;6.40;;;3.95;;
8755;SDS011;4414;42.670;23.228;2022-07-22T11:03:45;4.35;;;3.90;;
8755;SDS011;4414;42.670;23.228;2022-07-22T11:06:17;4.45;;;4.05;;
8755;SDS011;4414;42.670;23.228;2022-07-22T11:08:48;5.00;;;4.20;;
8755;SDS011;4414;42.670;23.228;2022-07-22T11:11:17;4.03;;;3.70;;
8755;SDS011;4414;42.670;23.228;2022-07-22T11:13:44;6.82;;;4.47;;
8755;SDS011;4414;42.670;23.228;2022-07-22T11:16:18;4.80;;;4.28;;
8755;SDS011;4414;42.670;23.228;2022-07-22T11:18:47;4.78;;;3.60;;
8755;SDS011;4414;42.670;23.228;2022-07-22T11:21:17;6.78;;;3.70;;
8755;SDS011;4414;42.670;23.228;2022-07-22T11:23:46;4.50;;;4.10;;
8755;SDS011;4414;42.670;23.228;2022-07-22T11:26:14;6.55;;;3.75;;
8755;SDS011;4414;42.670;23.228;2022-07-22T11:28:44;4.10;;;3.70;;
8755;SDS011;4414;42.670;23.228;2022-07-22T11:31:13;4.72;;;4.15;;
8755;SDS011;4414;42.670;23.228;2022-07-22T11:33:42;9.88;;;4.47;;
8755;SDS011;4414;42.670;23.228;2022-07-22T11:36:09;4.28;;;3.75;;
8755;SDS011;4414;42.670;23.228;2022-07-22T11:38:44;4.43;;;3.90;;
8755;SDS011;4414;42.670;23.228;2022-07-22T11:41:13;5.32;;;4.13;;
8755;SDS011;4414;42.670;23.228;2022-07-22T11:43:43;4.78;;;4.38;;
8755;SDS011;4414;42.670;23.228;2022-07-22T11:46:12;4.45;;;4.15;;
8755;SDS011;4414;42.670;23.228;2022-07-22T11:48:39;9.35;;;4.25;;
8755;SDS011;4414;42.670;23.228;2022-07-22T11:51:08;5.18;;;4.70;;
8755;SDS011;4414;42.670;23.228;2022-07-22T11:53:36;5.70;;;4.38;;
8755;SDS011;4414;42.670;23.228;2022-07-22T11:56:04;5.53;;;4.00;;
8755;SDS011;4414;42.670;23.228;2022-07-22T11:58:35;4.30;;;3.90;;
8755;SDS011;4414;42.670;23.228;2022-07-22T12:01:06;4.15;;;3.83;;
8755;SDS011;4414;42.670;23.228;2022-07-22T12:03:34;5.32;;;4.00;;
8755;SDS011;4414;42.670;23.228;2022-07-22T12:06:03;4.78;;;3.58;;
8755;SDS011;4414;42.670;23.228;2022-07-22T12:08:32;4.22;;;3.83;;
8755;SDS011;4414;42.670;23.228;2022-07-22T12:11:00;4.60;;;4.22;;
8755;SDS011;4414;42.670;23.228;2022-07-22T12:13:28;5.72;;;3.53;;
8755;SDS011;4414;42.670;23.228;2022-07-22T12:15:56;4.43;;;4.03;;
8755;SDS011;4414;42.670;23.228;2022-07-22T12:18:26;4.60;;;4.05;;
8755;SDS011;4414;42.670;23.228;2022-07-22T12:20:54;4.15;;;3.80;;
8755;SDS011;4414;42.670;23.228;2022-07-22T12:23:22;5.05;;;3.92;;
8755;SDS011;4414;42.670;23.228;2022-07-22T12:25:54;5.53;;;4.00;;
8755;SDS011;4414;42.670;23.228;2022-07-22T12:28:22;4.47;;;4.07;;
8755;SDS011;4414;42.670;23.228;2022-07-22T12:30:50;5.32;;;4.30;;
8755;SDS011;4414;42.670;23.228;2022-07-22T12:33:18;6.68;;;4.32;;
8755;SDS011;4414;42.670;23.228;2022-07-22T12:35:58;8.57;;;4.88;;
8755;SDS011;4414;42.670;23.228;2022-07-22T12:38:26;4.85;;;4.20;;
8755;SDS011;4414;42.670;23.228;2022-07-22T12:40:54;6.78;;;4.38;;
8755;SDS011;4414;42.670;23.228;2022-07-22T12:43:23;4.50;;;4.13;;
8755;SDS011;4414;42.670;23.228;2022-07-22T12:45:51;5.45;;;4.10;;
8755;SDS011;4414;42.670;23.228;2022-07-22T12:48:18;6.22;;;5.00;;
8755;SDS011;4414;42.670;23.228;2022-07-22T12:50:53;5.63;;;4.10;;
8755;SDS011;4414;42.670;23.228;2022-07-22T12:53:24;4.07;;;3.80;;
8755;SDS011;4414;42.670;23.228;2022-07-22T12:55:55;4.72;;;4.03;;
8755;SDS011;4414;42.670;23.228;2022-07-22T12:58:23;4.70;;;4.40;;
8755;SDS011;4414;42.670;23.228;2022-07-22T13:00:52;6.13;;;4.38;;
8755;SDS011;4414;42.670;23.228;2022-07-22T13:03:20;5.75;;;4.05;;
8755;SDS011;4414;42.670;23.228;2022-07-22T13:05:51;4.38;;;4.07;;
8755;SDS011;4414;42.670;23.228;2022-07-22T13:08:19;6.65;;;4.18;;
8755;SDS011;4414;42.670;23.228;2022-07-22T13:10:48;4.55;;;4.10;;
8755;SDS011;4414;42.670;23.228;2022-07-22T13:13:15;7.38;;;4.50;;
8755;SDS011;4414;42.670;23.228;2022-07-22T13:15:42;7.47;;;4.22;;
8755;SDS011;4414;42.670;23.228;2022-07-22T13:18:09;6.07;;;4.20;;
8755;SDS011;4414;42.670;23.228;2022-07-22T13:20:35;6.10;;;3.97;;
8755;SDS011;4414;42.670;23.228;2022-07-22T13:23:02;6.15;;;4.47;;
8755;SDS011;4414;42.670;23.228;2022-07-22T13:25:30;6.25;;;4.28;;
8755;SDS011;4414;42.670;23.228;2022-07-22T13:27:59;4.38;;;4.07;;
8755;SDS011;4414;42.670;23.228;2022-07-22T13:30:26;6.78;;;4.18;;
8755;SDS011;4414;42.670;23.228;2022-07-22T13:32:54;8.88;;;4.68;;
8755;SDS011;4414;42.670;23.228;2022-07-22T13:35:20;4.53;;;3.95;;
8755;SDS011;4414;42.670;23.228;2022-07-22T13:37:47;5.78;;;4.45;;
8755;SDS011;4414;42.670;23.228;2022-07-22T13:40:14;5.43;;;4.30;;
8755;SDS011;4414;42.670;23.228;2022-07-22T13:42:41;6.07;;;4.10;;
8755;SDS011;4414;42.670;23.228;2022-07-22T13:45:10;5.13;;;4.63;;
8755;SDS011;4414;42.670;23.228;2022-07-22T13:47:38;5.30;;;4.50;;
8755;SDS011;4414;42.670;23.228;2022-07-22T13:50:06;4.50;;;3.78;;
8755;SDS011;4414;42.670;23.228;2022-07-22T13:52:34;3.97;;;3.67;;
8755;SDS011;4414;42.670;23.228;2022-07-22T13:55:00;6.35;;;4.82;;
8755;SDS011;4414;42.670;23.228;2022-07-22T13:57:27;10.23;;;4.10;;
8755;SDS011;4414;42.670;23.228;2022-07-22T13:59:54;6.47;;;4.38;;
8755;SDS011;4414;42.670;23.228;2022-07-22T14:02:23;4.65;;;4.18;;
8755;SDS011;4414;42.670;23.228;2022-07-22T14:04:50;5.25;;;4.18;;
8755;SDS011;4414;42.670;23.228;2022-07-22T14:07:17;7.32;;;3.67;;
8755;SDS011;4414;42.670;23.228;2022-07-22T14:09:43;7.90;;;4.22;;
8755;SDS011;4414;42.670;23.228;2022-07-22T14:12:10;4.00;;;3.50;;
8755;SDS011;4414;42.670;23.228;2022-07-22T14:14:37;8.85;;;3.78;;
8755;SDS011;4414;42.670;23.228;2022-07-22T14:17:04;8.93;;;3.70;;
8755;SDS011;4414;42.670;23.228;2022-07-22T14:19:32;4.80;;;4.28;;
8755;SDS011;4414;42.670;23.228;2022-07-22T14:21:59;7.20;;;3.97;;
8755;SDS011;4414;42.670;23.228;2022-07-22T14:24:25;4.22;;;3.83;;
8755;SDS011;4414;42.670;23.228;2022-07-22T14:26:52;5.88;;;4.05;;
8755;SDS011;4414;42.670;23.228;2022-07-22T14:29:19;4.72;;;4.13;;
8755;SDS011;4414;42.670;23.228;2022-07-22T14:31:47;6.78;;;4.10;;
8755;SDS011;4414;42.670;23.228;2022-07-22T14:34:13;4.40;;;4.00;;
8755;SDS011;4414;42.670;23.228;2022-07-22T14:36:41;3.72;;;3.42;;
8755;SDS011;4414;42.670;23.228;2022-07-22T14:39:08;9.18;;;3.85;;
8755;SDS011;4414;42.670;23.228;2022-07-22T14:41:35;4.70;;;3.78;;
8755;SDS011;4414;42.670;23.228;2022-07-22T14:44:02;10.13;;;4.10;;
8755;SDS011;4414;42.670;23.228;2022-07-22T14:46:29;5.05;;;4.35;;
8755;SDS011;4414;42.670;23.228;2022-07-22T14:48:56;3.92;;;3.65;;
8755;SDS011;4414;42.670;23.228;2022-07-22T14:51:22;4.43;;;4.03;;
8755;SDS011;4414;42.670;23.228;2022-07-22T14:53:50;4.30;;;4.00;;
8755;SDS011;4414;42.670;23.228;2022-07-22T14:56:17;4.43;;;3.88;;
8755;SDS011;4414;42.670;23.228;2022-07-22T14:58:44;3.90;;;3.60;;
8755;SDS011;4414;42.670;23.228;2022-07-22T15:01:11;3.67;;;3.38;;
8755;SDS011;4414;42.670;23.228;2022-07-22T15:03:38;5.60;;;3.50;;